Eastman, Canada
Current Conditions -  °F | °C
As of 10:15 PM on Saturday 22 Nov 2014 (Local Time) from KEFK Reporting Station
Light Rain Light Rain  
Wind Chill: 28°   Ceiling: 2300
Heat Index: 33°   Visibility: 7mi
Dew Point: 28°   Wind: 5mph
Humidity: 83%   Direction: 170°S
Pressure: 29.91"   Gusts: NA
Location:  45.3°N, 72.32°W
Report Text: KEFK 230315Z AUTO 17004KT 7SM -RA BKN023 OVC028 00/M02 A2991 RMK AO2 T00031023
Loading
Personal Weather Stations






























Interactive Weather Map New forecast layout! Learn more

10-Day Weather Forecast

Advertisements
Track Severe Weather on mobile